sensor_id;sensor_type;location;lat;lon;timestamp;temperature;humidity
14349;DHT22;7258;50.376;8.742;2023-02-15T00:01:45;0.90;99.90
14349;DHT22;7258;50.376;8.742;2023-02-15T00:03:48;0.90;99.90
14349;DHT22;7258;50.376;8.742;2023-02-15T00:05:51;0.90;99.90
14349;DHT22;7258;50.376;8.742;2023-02-15T00:07:54;0.90;99.90
14349;DHT22;7258;50.376;8.742;2023-02-15T00:09:58;0.90;99.90
14349;DHT22;7258;50.376;8.742;2023-02-15T00:12:01;0.80;99.90
14349;DHT22;7258;50.376;8.742;2023-02-15T00:14:06;0.80;99.90
14349;DHT22;7258;50.376;8.742;2023-02-15T00:16:10;0.80;99.90
14349;DHT22;7258;50.376;8.742;2023-02-15T00:18:14;0.80;99.90
14349;DHT22;7258;50.376;8.742;2023-02-15T00:20:17;0.90;99.90
14349;DHT22;7258;50.376;8.742;2023-02-15T00:22:20;0.90;99.90
14349;DHT22;7258;50.376;8.742;2023-02-15T00:24:23;0.90;99.90
14349;DHT22;7258;50.376;8.742;2023-02-15T00:26:27;0.90;99.90
14349;DHT22;7258;50.376;8.742;2023-02-15T00:28:30;0.80;99.90
14349;DHT22;7258;50.376;8.742;2023-02-15T00:30:34;0.90;99.90
14349;DHT22;7258;50.376;8.742;2023-02-15T00:32:37;0.90;99.90
14349;DHT22;7258;50.376;8.742;2023-02-15T00:34:42;0.90;99.90
14349;DHT22;7258;50.376;8.742;2023-02-15T00:36:46;0.90;99.90
14349;DHT22;7258;50.376;8.742;2023-02-15T00:38:49;0.90;99.90
14349;DHT22;7258;50.376;8.742;2023-02-15T00:40:52;0.90;99.90
14349;DHT22;7258;50.376;8.742;2023-02-15T00:42:57;0.90;99.90
14349;DHT22;7258;50.376;8.742;2023-02-15T00:45:00;0.90;99.90
14349;DHT22;7258;50.376;8.742;2023-02-15T00:47:03;0.90;99.90
14349;DHT22;7258;50.376;8.742;2023-02-15T00:49:06;0.90;99.90
14349;DHT22;7258;50.376;8.742;2023-02-15T00:51:09;0.80;99.90
14349;DHT22;7258;50.376;8.742;2023-02-15T00:53:12;0.80;99.90
14349;DHT22;7258;50.376;8.742;2023-02-15T00:55:15;0.80;99.90
14349;DHT22;7258;50.376;8.742;2023-02-15T00:57:18;0.80;99.90
14349;DHT22;7258;50.376;8.742;2023-02-15T00:59:22;0.80;99.90
14349;DHT22;7258;50.376;8.742;2023-02-15T01:01:25;0.80;99.90
14349;DHT22;7258;50.376;8.742;2023-02-15T01:03:28;0.80;99.90
14349;DHT22;7258;50.376;8.742;2023-02-15T01:05:31;0.80;99.90
14349;DHT22;7258;50.376;8.742;2023-02-15T01:07:34;0.80;99.90
14349;DHT22;7258;50.376;8.742;2023-02-15T01:09:37;0.80;99.90
14349;DHT22;7258;50.376;8.742;2023-02-15T01:11:40;0.90;99.90
14349;DHT22;7258;50.376;8.742;2023-02-15T01:13:43;0.90;99.90
14349;DHT22;7258;50.376;8.742;2023-02-15T01:15:52;0.90;99.90
14349;DHT22;7258;50.376;8.742;2023-02-15T01:17:55;0.90;99.90
14349;DHT22;7258;50.376;8.742;2023-02-15T01:19:58;0.90;99.90
14349;DHT22;7258;50.376;8.742;2023-02-15T01:22:01;0.90;99.90
14349;DHT22;7258;50.376;8.742;2023-02-15T01:24:04;0.90;99.90
14349;DHT22;7258;50.376;8.742;2023-02-15T01:26:07;0.90;99.90
14349;DHT22;7258;50.376;8.742;2023-02-15T01:28:10;0.90;99.90
14349;DHT22;7258;50.376;8.742;2023-02-15T01:30:15;0.90;99.90
14349;DHT22;7258;50.376;8.742;2023-02-15T01:32:19;0.90;99.90
14349;DHT22;7258;50.376;8.742;2023-02-15T01:34:22;0.90;99.90
14349;DHT22;7258;50.376;8.742;2023-02-15T01:36:25;0.90;99.90
14349;DHT22;7258;50.376;8.742;2023-02-15T01:38:28;0.90;99.90
14349;DHT22;7258;50.376;8.742;2023-02-15T01:40:31;1.00;99.90
14349;DHT22;7258;50.376;8.742;2023-02-15T01:42:34;1.00;99.90
14349;DHT22;7258;50.376;8.742;2023-02-15T01:44:48;1.00;99.90
14349;DHT22;7258;50.376;8.742;2023-02-15T01:46:53;1.00;99.90
14349;DHT22;7258;50.376;8.742;2023-02-15T01:49:01;1.00;99.90
14349;DHT22;7258;50.376;8.742;2023-02-15T01:51:05;1.00;99.90
14349;DHT22;7258;50.376;8.742;2023-02-15T01:53:11;1.00;99.90
14349;DHT22;7258;50.376;8.742;2023-02-15T01:55:15;0.90;99.90
14349;DHT22;7258;50.376;8.742;2023-02-15T01:57:22;0.90;99.90
14349;DHT22;7258;50.376;8.742;2023-02-15T01:59:26;0.90;99.90
14349;DHT22;7258;50.376;8.742;2023-02-15T02:01:29;0.90;99.90
14349;DHT22;7258;50.376;8.742;2023-02-15T02:03:41;0.90;99.90
14349;DHT22;7258;50.376;8.742;2023-02-15T02:05:46;0.80;99.90
14349;DHT22;7258;50.376;8.742;2023-02-15T02:07:51;0.80;99.90
14349;DHT22;7258;50.376;8.742;2023-02-15T02:09:57;0.80;99.90
14349;DHT22;7258;50.376;8.742;2023-02-15T02:12:01;0.80;99.90
14349;DHT22;7258;50.376;8.742;2023-02-15T02:14:04;0.80;99.90
14349;DHT22;7258;50.376;8.742;2023-02-15T02:16:11;0.80;99.90
14349;DHT22;7258;50.376;8.742;2023-02-15T02:18:27;0.80;99.90
14349;DHT22;7258;50.376;8.742;2023-02-15T02:20:55;0.80;99.90
14349;DHT22;7258;50.376;8.742;2023-02-15T02:23:11;0.80;99.90
14349;DHT22;7258;50.376;8.742;2023-02-15T02:28:03;0.80;99.90
14349;DHT22;7258;50.376;8.742;2023-02-15T02:30:48;0.80;99.90
14349;DHT22;7258;50.376;8.742;2023-02-15T02:33:20;0.80;99.90
14349;DHT22;7258;50.376;8.742;2023-02-15T02:35:31;0.80;99.90
14349;DHT22;7258;50.376;8.742;2023-02-15T02:37:45;0.80;99.90
14349;DHT22;7258;50.376;8.742;2023-02-15T02:39:53;0.80;99.90
14349;DHT22;7258;50.376;8.742;2023-02-15T02:42:01;0.80;99.90
14349;DHT22;7258;50.376;8.742;2023-02-15T02:44:10;0.80;99.90
14349;DHT22;7258;50.376;8.742;2023-02-15T02:46:20;0.80;99.90
14349;DHT22;7258;50.376;8.742;2023-02-15T02:48:26;0.80;99.90
14349;DHT22;7258;50.376;8.742;2023-02-15T02:50:30;0.80;99.90
14349;DHT22;7258;50.376;8.742;2023-02-15T02:52:40;0.80;99.90
14349;DHT22;7258;50.376;8.742;2023-02-15T02:54:43;0.80;99.90
14349;DHT22;7258;50.376;8.742;2023-02-15T02:56:47;0.80;99.90
14349;DHT22;7258;50.376;8.742;2023-02-15T02:58:56;0.80;99.90
14349;DHT22;7258;50.376;8.742;2023-02-15T03:01:05;0.80;99.90
14349;DHT22;7258;50.376;8.742;2023-02-15T03:03:13;0.80;99.90
14349;DHT22;7258;50.376;8.742;2023-02-15T03:05:22;0.80;99.90
14349;DHT22;7258;50.376;8.742;2023-02-15T03:07:29;0.80;99.90
14349;DHT22;7258;50.376;8.742;2023-02-15T03:09:36;0.80;99.90
14349;DHT22;7258;50.376;8.742;2023-02-15T03:11:44;0.80;99.90
14349;DHT22;7258;50.376;8.742;2023-02-15T03:13:49;0.80;99.90
14349;DHT22;7258;50.376;8.742;2023-02-15T03:15:52;0.80;99.90
14349;DHT22;7258;50.376;8.742;2023-02-15T03:18:14;0.80;99.90
14349;DHT22;7258;50.376;8.742;2023-02-15T03:20:22;0.80;99.90
14349;DHT22;7258;50.376;8.742;2023-02-15T03:22:30;0.80;99.90
14349;DHT22;7258;50.376;8.742;2023-02-15T03:24:39;0.80;99.90
14349;DHT22;7258;50.376;8.742;2023-02-15T03:26:46;0.80;99.90
14349;DHT22;7258;50.376;8.742;2023-02-15T03:28:53;0.80;99.90
14349;DHT22;7258;50.376;8.742;2023-02-15T03:31:00;0.80;99.90
14349;DHT22;7258;50.376;8.742;2023-02-15T03:33:06;0.80;99.90
14349;DHT22;7258;50.376;8.742;2023-02-15T03:35:09;0.80;99.90
14349;DHT22;7258;50.376;8.742;2023-02-15T03:37:18;0.80;99.90
14349;DHT22;7258;50.376;8.742;2023-02-15T03:39:30;0.80;99.90
14349;DHT22;7258;50.376;8.742;2023-02-15T03:41:41;0.80;99.90
14349;DHT22;7258;50.376;8.742;2023-02-15T03:43:48;0.80;99.90
14349;DHT22;7258;50.376;8.742;2023-02-15T03:45:57;0.80;99.90
14349;DHT22;7258;50.376;8.742;2023-02-15T03:48:03;0.80;99.90
14349;DHT22;7258;50.376;8.742;2023-02-15T03:50:13;0.80;99.90
14349;DHT22;7258;50.376;8.742;2023-02-15T03:52:34;0.80;99.90
14349;DHT22;7258;50.376;8.742;2023-02-15T03:54:38;0.80;99.90
14349;DHT22;7258;50.376;8.742;2023-02-15T03:56:44;0.80;99.90
14349;DHT22;7258;50.376;8.742;2023-02-15T03:59:07;0.80;99.90
14349;DHT22;7258;50.376;8.742;2023-02-15T04:01:34;0.80;99.90
14349;DHT22;7258;50.376;8.742;2023-02-15T04:03:59;0.90;99.90
14349;DHT22;7258;50.376;8.742;2023-02-15T04:06:04;0.80;99.90
14349;DHT22;7258;50.376;8.742;2023-02-15T04:08:09;0.90;99.90
14349;DHT22;7258;50.376;8.742;2023-02-15T04:10:12;0.90;99.90
14349;DHT22;7258;50.376;8.742;2023-02-15T04:12:32;0.90;99.90
14349;DHT22;7258;50.376;8.742;2023-02-15T04:14:35;0.90;99.90
14349;DHT22;7258;50.376;8.742;2023-02-15T04:16:56;0.90;99.90
14349;DHT22;7258;50.376;8.742;2023-02-15T04:18:58;0.90;99.90
14349;DHT22;7258;50.376;8.742;2023-02-15T04:21:21;0.90;99.90
14349;DHT22;7258;50.376;8.742;2023-02-15T04:23:43;0.90;99.90
14349;DHT22;7258;50.376;8.742;2023-02-15T04:26:03;0.90;99.90
14349;DHT22;7258;50.376;8.742;2023-02-15T04:28:06;0.90;99.90
14349;DHT22;7258;50.376;8.742;2023-02-15T04:30:11;0.90;99.90
14349;DHT22;7258;50.376;8.742;2023-02-15T04:32:15;0.90;99.90
14349;DHT22;7258;50.376;8.742;2023-02-15T04:34:18;0.90;99.90
14349;DHT22;7258;50.376;8.742;2023-02-15T04:36:21;0.80;99.90
14349;DHT22;7258;50.376;8.742;2023-02-15T04:38:24;0.80;99.90
14349;DHT22;7258;50.376;8.742;2023-02-15T04:40:28;0.90;99.90
14349;DHT22;7258;50.376;8.742;2023-02-15T04:42:32;0.90;99.90
14349;DHT22;7258;50.376;8.742;2023-02-15T04:44:35;0.90;99.90
14349;DHT22;7258;50.376;8.742;2023-02-15T04:46:37;0.90;99.90
14349;DHT22;7258;50.376;8.742;2023-02-15T04:48:40;0.80;99.90
14349;DHT22;7258;50.376;8.742;2023-02-15T04:50:44;0.80;99.90
14349;DHT22;7258;50.376;8.742;2023-02-15T04:52:47;0.90;99.90
14349;DHT22;7258;50.376;8.742;2023-02-15T04:54:50;0.90;99.90
14349;DHT22;7258;50.376;8.742;2023-02-15T04:56:54;0.90;99.90
14349;DHT22;7258;50.376;8.742;2023-02-15T04:58:57;0.90;99.90
14349;DHT22;7258;50.376;8.742;2023-02-15T05:01:00;0.90;99.90
14349;DHT22;7258;50.376;8.742;2023-02-15T05:03:03;0.90;99.90
14349;DHT22;7258;50.376;8.742;2023-02-15T05:05:06;0.90;99.90
14349;DHT22;7258;50.376;8.742;2023-02-15T05:07:14;0.90;99.90
14349;DHT22;7258;50.376;8.742;2023-02-15T05:09:17;0.80;99.90
14349;DHT22;7258;50.376;8.742;2023-02-15T05:11:20;0.80;99.90
14349;DHT22;7258;50.376;8.742;2023-02-15T05:13:24;0.90;99.90
14349;DHT22;7258;50.376;8.742;2023-02-15T05:15:27;0.90;99.90
14349;DHT22;7258;50.376;8.742;2023-02-15T05:17:30;0.80;99.90
14349;DHT22;7258;50.376;8.742;2023-02-15T05:19:33;0.80;99.90
14349;DHT22;7258;50.376;8.742;2023-02-15T05:21:39;0.80;99.90
14349;DHT22;7258;50.376;8.742;2023-02-15T05:23:42;0.80;99.90
14349;DHT22;7258;50.376;8.742;2023-02-15T05:25:48;0.80;99.90
14349;DHT22;7258;50.376;8.742;2023-02-15T05:28:09;0.80;99.90
14349;DHT22;7258;50.376;8.742;2023-02-15T05:30:25;0.80;99.90
14349;DHT22;7258;50.376;8.742;2023-02-15T05:32:28;0.80;99.90
14349;DHT22;7258;50.376;8.742;2023-02-15T05:34:31;0.80;99.90
14349;DHT22;7258;50.376;8.742;2023-02-15T05:36:34;0.80;99.90
14349;DHT22;7258;50.376;8.742;2023-02-15T05:38:38;0.80;99.90
14349;DHT22;7258;50.376;8.742;2023-02-15T05:40:41;0.80;99.90
14349;DHT22;7258;50.376;8.742;2023-02-15T05:42:43;0.80;99.90
14349;DHT22;7258;50.376;8.742;2023-02-15T05:44:46;0.80;99.90
14349;DHT22;7258;50.376;8.742;2023-02-15T05:46:50;0.80;99.90
14349;DHT22;7258;50.376;8.742;2023-02-15T05:48:54;0.80;99.90
14349;DHT22;7258;50.376;8.742;2023-02-15T05:50:59;0.80;99.90
14349;DHT22;7258;50.376;8.742;2023-02-15T05:53:02;0.80;99.90
14349;DHT22;7258;50.376;8.742;2023-02-15T05:55:05;0.80;99.90
14349;DHT22;7258;50.376;8.742;2023-02-15T05:57:10;0.80;99.90
14349;DHT22;7258;50.376;8.742;2023-02-15T05:59:13;0.80;99.90
14349;DHT22;7258;50.376;8.742;2023-02-15T06:01:17;0.80;99.90
14349;DHT22;7258;50.376;8.742;2023-02-15T06:03:25;0.80;99.90
14349;DHT22;7258;50.376;8.742;2023-02-15T06:05:30;0.80;99.90
14349;DHT22;7258;50.376;8.742;2023-02-15T06:07:33;0.80;99.90
14349;DHT22;7258;50.376;8.742;2023-02-15T06:09:36;0.80;99.90
14349;DHT22;7258;50.376;8.742;2023-02-15T06:11:39;0.80;99.90
14349;DHT22;7258;50.376;8.742;2023-02-15T06:13:42;0.80;99.90
14349;DHT22;7258;50.376;8.742;2023-02-15T06:15:45;0.80;99.90
14349;DHT22;7258;50.376;8.742;2023-02-15T06:17:48;0.80;99.90
14349;DHT22;7258;50.376;8.742;2023-02-15T06:19:52;0.80;99.90
14349;DHT22;7258;50.376;8.742;2023-02-15T06:21:55;0.80;99.90
14349;DHT22;7258;50.376;8.742;2023-02-15T06:23:58;0.80;99.90
14349;DHT22;7258;50.376;8.742;2023-02-15T06:26:01;0.90;99.90
14349;DHT22;7258;50.376;8.742;2023-02-15T06:28:04;0.80;99.90
14349;DHT22;7258;50.376;8.742;2023-02-15T06:30:08;0.80;99.90
14349;DHT22;7258;50.376;8.742;2023-02-15T06:32:12;0.80;99.90
14349;DHT22;7258;50.376;8.742;2023-02-15T06:34:15;0.80;99.90
14349;DHT22;7258;50.376;8.742;2023-02-15T06:36:20;0.80;99.90
14349;DHT22;7258;50.376;8.742;2023-02-15T06:38:23;0.80;99.90
14349;DHT22;7258;50.376;8.742;2023-02-15T06:40:26;0.80;99.90
14349;DHT22;7258;50.376;8.742;2023-02-15T06:42:29;0.80;99.90
14349;DHT22;7258;50.376;8.742;2023-02-15T06:44:32;0.80;99.90
14349;DHT22;7258;50.376;8.742;2023-02-15T06:46:35;0.80;99.90
14349;DHT22;7258;50.376;8.742;2023-02-15T06:48:38;0.80;99.90
14349;DHT22;7258;50.376;8.742;2023-02-15T06:51:06;0.90;99.90
14349;DHT22;7258;50.376;8.742;2023-02-15T06:53:11;0.90;99.90
14349;DHT22;7258;50.376;8.742;2023-02-15T06:55:14;0.90;99.90
14349;DHT22;7258;50.376;8.742;2023-02-15T06:57:17;0.90;99.90
14349;DHT22;7258;50.376;8.742;2023-02-15T06:59:20;0.90;99.90
14349;DHT22;7258;50.376;8.742;2023-02-15T07:01:23;0.90;99.90
14349;DHT22;7258;50.376;8.742;2023-02-15T07:03:26;0.90;99.90
14349;DHT22;7258;50.376;8.742;2023-02-15T07:05:34;0.90;99.90
14349;DHT22;7258;50.376;8.742;2023-02-15T07:07:37;1.00;99.90
14349;DHT22;7258;50.376;8.742;2023-02-15T07:09:41;1.00;99.90
14349;DHT22;7258;50.376;8.742;2023-02-15T07:11:44;1.00;99.90
14349;DHT22;7258;50.376;8.742;2023-02-15T07:14:04;1.00;99.90
14349;DHT22;7258;50.376;8.742;2023-02-15T07:16:08;1.00;99.90
14349;DHT22;7258;50.376;8.742;2023-02-15T07:18:11;1.00;99.90
14349;DHT22;7258;50.376;8.742;2023-02-15T07:20:17;1.10;99.90
14349;DHT22;7258;50.376;8.742;2023-02-15T07:22:20;1.10;99.90
14349;DHT22;7258;50.376;8.742;2023-02-15T07:24:23;1.10;99.90
14349;DHT22;7258;50.376;8.742;2023-02-15T07:26:28;1.10;99.90
14349;DHT22;7258;50.376;8.742;2023-02-15T07:28:34;1.10;99.90
14349;DHT22;7258;50.376;8.742;2023-02-15T07:30:37;1.20;99.90
14349;DHT22;7258;50.376;8.742;2023-02-15T07:32:42;1.20;99.90
14349;DHT22;7258;50.376;8.742;2023-02-15T07:34:59;1.20;99.90
14349;DHT22;7258;50.376;8.742;2023-02-15T07:37:02;1.20;99.90
14349;DHT22;7258;50.376;8.742;2023-02-15T07:39:06;1.30;99.90
14349;DHT22;7258;50.376;8.742;2023-02-15T07:41:10;1.30;99.90
14349;DHT22;7258;50.376;8.742;2023-02-15T07:43:15;1.30;99.90
14349;DHT22;7258;50.376;8.742;2023-02-15T07:45:18;1.30;99.90
14349;DHT22;7258;50.376;8.742;2023-02-15T07:47:21;1.30;99.90
14349;DHT22;7258;50.376;8.742;2023-02-15T07:49:24;1.30;99.90
14349;DHT22;7258;50.376;8.742;2023-02-15T07:51:52;1.30;99.90
14349;DHT22;7258;50.376;8.742;2023-02-15T07:53:59;1.40;99.90
14349;DHT22;7258;50.376;8.742;2023-02-15T07:56:04;1.40;99.90
14349;DHT22;7258;50.376;8.742;2023-02-15T07:58:08;1.40;99.90
14349;DHT22;7258;50.376;8.742;2023-02-15T08:00:15;1.40;99.90
14349;DHT22;7258;50.376;8.742;2023-02-15T08:02:19;1.40;99.90
14349;DHT22;7258;50.376;8.742;2023-02-15T08:04:23;1.50;99.90
14349;DHT22;7258;50.376;8.742;2023-02-15T08:06:28;1.40;99.90
14349;DHT22;7258;50.376;8.742;2023-02-15T08:08:33;1.50;99.90
14349;DHT22;7258;50.376;8.742;2023-02-15T08:10:37;1.50;99.90
14349;DHT22;7258;50.376;8.742;2023-02-15T08:13:12;1.50;99.90
14349;DHT22;7258;50.376;8.742;2023-02-15T08:15:17;1.60;99.90
14349;DHT22;7258;50.376;8.742;2023-02-15T08:17:20;1.50;99.90
14349;DHT22;7258;50.376;8.742;2023-02-15T08:19:27;1.60;99.90
14349;DHT22;7258;50.376;8.742;2023-02-15T08:21:31;1.60;99.90
14349;DHT22;7258;50.376;8.742;2023-02-15T08:23:35;1.60;99.90
14349;DHT22;7258;50.376;8.742;2023-02-15T08:25:38;1.70;99.90
14349;DHT22;7258;50.376;8.742;2023-02-15T08:27:41;1.70;99.90
14349;DHT22;7258;50.376;8.742;2023-02-15T08:29:44;1.60;99.90
14349;DHT22;7258;50.376;8.742;2023-02-15T08:31:50;1.70;99.90
14349;DHT22;7258;50.376;8.742;2023-02-15T08:33:55;1.60;99.90
14349;DHT22;7258;50.376;8.742;2023-02-15T08:36:02;1.70;99.90
14349;DHT22;7258;50.376;8.742;2023-02-15T08:38:05;1.60;99.90
14349;DHT22;7258;50.376;8.742;2023-02-15T08:40:09;1.60;99.90
14349;DHT22;7258;50.376;8.742;2023-02-15T08:42:17;1.70;99.90
14349;DHT22;7258;50.376;8.742;2023-02-15T08:44:22;1.70;99.90
14349;DHT22;7258;50.376;8.742;2023-02-15T08:46:27;1.70;99.90
14349;DHT22;7258;50.376;8.742;2023-02-15T08:48:32;1.70;99.90
14349;DHT22;7258;50.376;8.742;2023-02-15T08:50:35;1.70;99.90
14349;DHT22;7258;50.376;8.742;2023-02-15T08:52:38;1.70;99.90
14349;DHT22;7258;50.376;8.742;2023-02-15T08:54:41;1.70;99.90
14349;DHT22;7258;50.376;8.742;2023-02-15T08:56:44;1.70;99.90
14349;DHT22;7258;50.376;8.742;2023-02-15T08:58:48;1.70;99.90
14349;DHT22;7258;50.376;8.742;2023-02-15T09:00:51;1.70;99.90
14349;DHT22;7258;50.376;8.742;2023-02-15T09:02:54;1.80;99.90
14349;DHT22;7258;50.376;8.742;2023-02-15T09:04:58;1.80;99.90
14349;DHT22;7258;50.376;8.742;2023-02-15T09:07:01;1.80;99.90
14349;DHT22;7258;50.376;8.742;2023-02-15T09:09:06;1.80;99.90
14349;DHT22;7258;50.376;8.742;2023-02-15T09:11:11;1.80;99.90
14349;DHT22;7258;50.376;8.742;2023-02-15T09:13:14;1.80;99.90
14349;DHT22;7258;50.376;8.742;2023-02-15T09:15:17;1.90;99.90
14349;DHT22;7258;50.376;8.742;2023-02-15T09:17:20;1.80;99.90
14349;DHT22;7258;50.376;8.742;2023-02-15T09:19:23;1.90;99.90
14349;DHT22;7258;50.376;8.742;2023-02-15T09:21:28;1.90;99.90
14349;DHT22;7258;50.376;8.742;2023-02-15T09:23:31;1.90;99.90
14349;DHT22;7258;50.376;8.742;2023-02-15T09:25:34;1.90;99.90
14349;DHT22;7258;50.376;8.742;2023-02-15T09:27:37;2.00;99.90
14349;DHT22;7258;50.376;8.742;2023-02-15T09:29:41;2.00;99.90
14349;DHT22;7258;50.376;8.742;2023-02-15T09:31:45;2.00;99.90
14349;DHT22;7258;50.376;8.742;2023-02-15T09:33:48;1.90;99.90
14349;DHT22;7258;50.376;8.742;2023-02-15T09:35:51;1.90;99.90
14349;DHT22;7258;50.376;8.742;2023-02-15T09:37:56;1.90;99.90
14349;DHT22;7258;50.376;8.742;2023-02-15T09:39:59;1.90;99.90
14349;DHT22;7258;50.376;8.742;2023-02-15T09:42:33;1.80;99.90
14349;DHT22;7258;50.376;8.742;2023-02-15T09:44:52;1.80;99.90
14349;DHT22;7258;50.376;8.742;2023-02-15T09:47:15;1.80;99.90
14349;DHT22;7258;50.376;8.742;2023-02-15T09:49:29;1.80;99.90
14349;DHT22;7258;50.376;8.742;2023-02-15T09:51:52;1.80;99.90
14349;DHT22;7258;50.376;8.742;2023-02-15T09:54:13;1.90;99.90
14349;DHT22;7258;50.376;8.742;2023-02-15T09:56:24;1.90;99.90
14349;DHT22;7258;50.376;8.742;2023-02-15T09:58:35;1.90;99.90
14349;DHT22;7258;50.376;8.742;2023-02-15T10:00:49;1.90;99.90
14349;DHT22;7258;50.376;8.742;2023-02-15T10:03:09;1.90;99.90
14349;DHT22;7258;50.376;8.742;2023-02-15T10:05:23;1.90;99.90
14349;DHT22;7258;50.376;8.742;2023-02-15T10:07:49;1.90;99.90
14349;DHT22;7258;50.376;8.742;2023-02-15T10:10:07;1.90;99.90
14349;DHT22;7258;50.376;8.742;2023-02-15T10:12:30;1.90;99.90
14349;DHT22;7258;50.376;8.742;2023-02-15T10:17:11;1.90;99.90
14349;DHT22;7258;50.376;8.742;2023-02-15T10:19:23;1.90;99.90
14349;DHT22;7258;50.376;8.742;2023-02-15T10:21:41;1.90;99.90
14349;DHT22;7258;50.376;8.742;2023-02-15T10:23:58;1.90;99.90
14349;DHT22;7258;50.376;8.742;2023-02-15T10:26:12;1.90;99.90
14349;DHT22;7258;50.376;8.742;2023-02-15T10:28:20;1.90;99.90
14349;DHT22;7258;50.376;8.742;2023-02-15T10:30:29;1.90;99.90
14349;DHT22;7258;50.376;8.742;2023-02-15T10:32:39;1.90;99.90
14349;DHT22;7258;50.376;8.742;2023-02-15T10:34:51;1.90;99.90
14349;DHT22;7258;50.376;8.742;2023-02-15T10:39:45;1.90;99.90
14349;DHT22;7258;50.376;8.742;2023-02-15T10:42:00;1.90;99.90
14349;DHT22;7258;50.376;8.742;2023-02-15T10:44:29;1.80;99.90
14349;DHT22;7258;50.376;8.742;2023-02-15T10:47:06;1.80;99.90
14349;DHT22;7258;50.376;8.742;2023-02-15T10:49:25;1.70;99.90
14349;DHT22;7258;50.376;8.742;2023-02-15T10:51:39;1.70;99.90
14349;DHT22;7258;50.376;8.742;2023-02-15T10:54:05;1.80;99.90
14349;DHT22;7258;50.376;8.742;2023-02-15T10:56:16;1.80;99.90
14349;DHT22;7258;50.376;8.742;2023-02-15T10:58:34;1.80;99.90
14349;DHT22;7258;50.376;8.742;2023-02-15T11:00:44;1.80;99.90
14349;DHT22;7258;50.376;8.742;2023-02-15T11:05:34;1.80;99.90
14349;DHT22;7258;50.376;8.742;2023-02-15T11:07:40;1.80;99.90
14349;DHT22;7258;50.376;8.742;2023-02-15T11:09:46;1.80;99.90
14349;DHT22;7258;50.376;8.742;2023-02-15T11:11:52;1.80;99.90
14349;DHT22;7258;50.376;8.742;2023-02-15T11:14:01;1.80;99.90
14349;DHT22;7258;50.376;8.742;2023-02-15T11:16:10;1.80;99.90
14349;DHT22;7258;50.376;8.742;2023-02-15T11:18:16;1.80;99.90
14349;DHT22;7258;50.376;8.742;2023-02-15T11:20:27;1.80;99.90
14349;DHT22;7258;50.376;8.742;2023-02-15T11:22:32;1.90;99.90
14349;DHT22;7258;50.376;8.742;2023-02-15T11:24:40;1.90;99.90
14349;DHT22;7258;50.376;8.742;2023-02-15T11:26:47;1.90;99.90
14349;DHT22;7258;50.376;8.742;2023-02-15T11:28:55;2.00;99.90
14349;DHT22;7258;50.376;8.742;2023-02-15T11:31:10;2.00;99.90
14349;DHT22;7258;50.376;8.742;2023-02-15T11:33:17;2.00;99.90
14349;DHT22;7258;50.376;8.742;2023-02-15T11:35:27;2.00;99.90
14349;DHT22;7258;50.376;8.742;2023-02-15T11:37:35;2.00;99.90
14349;DHT22;7258;50.376;8.742;2023-02-15T11:39:40;2.00;99.90
14349;DHT22;7258;50.376;8.742;2023-02-15T11:41:47;2.00;99.90
14349;DHT22;7258;50.376;8.742;2023-02-15T11:43:57;1.90;99.90
14349;DHT22;7258;50.376;8.742;2023-02-15T11:46:03;1.90;99.90
14349;DHT22;7258;50.376;8.742;2023-02-15T11:48:10;2.00;99.90
14349;DHT22;7258;50.376;8.742;2023-02-15T11:50:16;2.00;99.90
14349;DHT22;7258;50.376;8.742;2023-02-15T11:52:27;2.00;99.90
14349;DHT22;7258;50.376;8.742;2023-02-15T11:54:34;2.10;99.90
14349;DHT22;7258;50.376;8.742;2023-02-15T11:56:38;2.10;99.90
14349;DHT22;7258;50.376;8.742;2023-02-15T11:58:44;2.10;99.90
14349;DHT22;7258;50.376;8.742;2023-02-15T12:00:58;2.20;99.90
14349;DHT22;7258;50.376;8.742;2023-02-15T12:03:15;2.20;99.90
14349;DHT22;7258;50.376;8.742;2023-02-15T12:05:25;2.10;99.90
14349;DHT22;7258;50.376;8.742;2023-02-15T12:07:32;2.20;99.90
14349;DHT22;7258;50.376;8.742;2023-02-15T12:09:48;2.20;99.90
14349;DHT22;7258;50.376;8.742;2023-02-15T12:11:52;2.10;99.90
14349;DHT22;7258;50.376;8.742;2023-02-15T12:13:56;2.10;99.90
14349;DHT22;7258;50.376;8.742;2023-02-15T12:16:06;2.10;99.90
14349;DHT22;7258;50.376;8.742;2023-02-15T12:18:21;2.10;99.90
14349;DHT22;7258;50.376;8.742;2023-02-15T12:20:32;2.20;99.90
14349;DHT22;7258;50.376;8.742;2023-02-15T12:22:37;2.30;99.90
14349;DHT22;7258;50.376;8.742;2023-02-15T12:24:45;2.30;99.90
14349;DHT22;7258;50.376;8.742;2023-02-15T12:26:57;2.30;99.90
14349;DHT22;7258;50.376;8.742;2023-02-15T12:29:06;2.30;99.90
14349;DHT22;7258;50.376;8.742;2023-02-15T12:31:21;2.40;99.90
14349;DHT22;7258;50.376;8.742;2023-02-15T12:33:29;2.40;99.90
14349;DHT22;7258;50.376;8.742;2023-02-15T12:35:34;2.40;99.90
14349;DHT22;7258;50.376;8.742;2023-02-15T12:37:39;2.40;99.90
14349;DHT22;7258;50.376;8.742;2023-02-15T12:39:56;2.40;99.90
14349;DHT22;7258;50.376;8.742;2023-02-15T12:42:02;2.40;99.90
14349;DHT22;7258;50.376;8.742;2023-02-15T12:44:09;2.40;99.90
14349;DHT22;7258;50.376;8.742;2023-02-15T12:46:22;2.50;99.90
14349;DHT22;7258;50.376;8.742;2023-02-15T12:48:27;2.50;99.90
14349;DHT22;7258;50.376;8.742;2023-02-15T12:50:30;2.50;99.90
14349;DHT22;7258;50.376;8.742;2023-02-15T12:52:36;2.50;99.90
14349;DHT22;7258;50.376;8.742;2023-02-15T12:54:40;2.40;99.90
14349;DHT22;7258;50.376;8.742;2023-02-15T12:56:44;2.40;99.90
14349;DHT22;7258;50.376;8.742;2023-02-15T12:58:47;2.40;99.90
14349;DHT22;7258;50.376;8.742;2023-02-15T13:01:03;2.40;99.90
14349;DHT22;7258;50.376;8.742;2023-02-15T13:03:16;2.40;99.90
14349;DHT22;7258;50.376;8.742;2023-02-15T13:05:26;2.40;99.90
14349;DHT22;7258;50.376;8.742;2023-02-15T13:07:32;2.40;99.90
14349;DHT22;7258;50.376;8.742;2023-02-15T13:09:37;2.40;99.90
14349;DHT22;7258;50.376;8.742;2023-02-15T13:11:42;2.50;99.90
14349;DHT22;7258;50.376;8.742;2023-02-15T13:13:51;2.50;99.90
14349;DHT22;7258;50.376;8.742;2023-02-15T13:15:58;2.50;99.90
14349;DHT22;7258;50.376;8.742;2023-02-15T13:18:05;2.60;99.90
14349;DHT22;7258;50.376;8.742;2023-02-15T13:20:17;2.60;99.90
14349;DHT22;7258;50.376;8.742;2023-02-15T13:22:26;2.70;99.90
14349;DHT22;7258;50.376;8.742;2023-02-15T13:24:33;2.60;99.90
14349;DHT22;7258;50.376;8.742;2023-02-15T13:26:41;2.60;99.90
14349;DHT22;7258;50.376;8.742;2023-02-15T13:28:48;2.60;99.90
14349;DHT22;7258;50.376;8.742;2023-02-15T13:30:55;2.60;99.90
14349;DHT22;7258;50.376;8.742;2023-02-15T13:33:02;2.60;99.90
14349;DHT22;7258;50.376;8.742;2023-02-15T13:35:06;2.60;99.90
14349;DHT22;7258;50.376;8.742;2023-02-15T13:37:15;2.60;99.90
14349;DHT22;7258;50.376;8.742;2023-02-15T13:39:26;2.60;99.90
14349;DHT22;7258;50.376;8.742;2023-02-15T13:41:34;2.60;99.90
14349;DHT22;7258;50.376;8.742;2023-02-15T13:43:50;2.70;99.90
14349;DHT22;7258;50.376;8.742;2023-02-15T13:46:06;2.60;99.90
14349;DHT22;7258;50.376;8.742;2023-02-15T13:48:16;2.60;99.90
14349;DHT22;7258;50.376;8.742;2023-02-15T13:50:31;2.60;99.90
14349;DHT22;7258;50.376;8.742;2023-02-15T13:52:42;2.60;99.90
14349;DHT22;7258;50.376;8.742;2023-02-15T13:55:00;2.60;99.90
14349;DHT22;7258;50.376;8.742;2023-02-15T13:57:33;2.60;99.90
14349;DHT22;7258;50.376;8.742;2023-02-15T13:59:48;2.70;99.90
14349;DHT22;7258;50.376;8.742;2023-02-15T14:02:02;2.60;99.90
14349;DHT22;7258;50.376;8.742;2023-02-15T14:04:34;2.70;99.90